Terminal Aerodrome Forecast
Issued by NWS King Salmon, AK

Home | Current Version | Previous Version | Text Only | Print | Product List | Glossary On
Versions: 1 2 3 4 5 6 7 8 9 10 11 12 13 14 15 16 17 18 19 20 21 22 23 24 25 26 27 28 29 30 31 32
000
FTAK31 PANC 221149
TAFAKN
TAF
PAKN 221149Z 2212/2312 24010KT 5SM -SN BR OVC040
      TEMPO 2212/2216 3SM -SN BR BKN020
     FM221800 16008KT P6SM -SN BKN050=

USA.gov is the U.S. government's official web portal to all federal, state and local government web resources and services.